sensor_id;sensor_type;location;lat;lon;timestamp;pressure;altitude;pressure_sealevel;temperature;humidity
60437;BME280;46289;51.992;4.498;2023-03-19T00:01:05;101234.63;;;10.14;94.13
60437;BME280;46289;51.992;4.498;2023-03-19T00:03:11;101239.91;;;10.14;93.91
60437;BME280;46289;51.992;4.498;2023-03-19T00:05:18;101245.94;;;10.17;94.16
60437;BME280;46289;51.992;4.498;2023-03-19T00:07:26;101245.16;;;10.14;94.04
60437;BME280;46289;51.992;4.498;2023-03-19T00:09:30;101248.59;;;10.16;93.84
60437;BME280;46289;51.992;4.498;2023-03-19T00:11:36;101245.16;;;10.14;94.22
60437;BME280;46289;51.992;4.498;2023-03-19T00:13:44;101249.63;;;10.11;94.13
60437;BME280;46289;51.992;4.498;2023-03-19T00:15:49;101255.75;;;10.10;94.47
60437;BME280;46289;51.992;4.498;2023-03-19T00:17:54;101253.03;;;10.14;94.13
60437;BME280;46289;51.992;4.498;2023-03-19T00:19:58;101260.06;;;10.13;94.18
60437;BME280;46289;51.992;4.498;2023-03-19T00:22:04;101261.97;;;10.08;94.42
60437;BME280;46289;51.992;4.498;2023-03-19T00:24:11;101259.41;;;10.06;94.78
60437;BME280;46289;51.992;4.498;2023-03-19T00:26:18;101262.13;;;10.03;94.39
60437;BME280;46289;51.992;4.498;2023-03-19T00:28:23;101259.50;;;10.03;94.53
60437;BME280;46289;51.992;4.498;2023-03-19T00:30:28;101261.09;;;10.07;94.26
60437;BME280;46289;51.992;4.498;2023-03-19T00:32:33;101259.44;;;10.05;94.61
60437;BME280;46289;51.992;4.498;2023-03-19T00:34:37;101262.91;;;10.05;94.31
60437;BME280;46289;51.992;4.498;2023-03-19T00:36:42;101249.84;;;10.04;94.65
60437;BME280;46289;51.992;4.498;2023-03-19T00:38:48;101262.91;;;10.05;94.97
60437;BME280;46289;51.992;4.498;2023-03-19T00:40:56;101261.22;;;10.04;94.63
60437;BME280;46289;51.992;4.498;2023-03-19T00:43:05;101274.31;;;10.06;94.65
60437;BME280;46289;51.992;4.498;2023-03-19T00:45:12;101275.09;;;10.08;94.37
60437;BME280;46289;51.992;4.498;2023-03-19T00:47:19;101270.00;;;10.03;94.08
60437;BME280;46289;51.992;4.498;2023-03-19T00:49:26;101268.22;;;10.04;93.85
60437;BME280;46289;51.992;4.498;2023-03-19T00:51:30;101278.84;;;10.01;93.89
60437;BME280;46289;51.992;4.498;2023-03-19T00:53:36;101271.03;;;9.98;93.65
60437;BME280;46289;51.992;4.498;2023-03-19T00:55:43;101270.16;;;9.99;93.74
60437;BME280;46289;51.992;4.498;2023-03-19T00:57:50;101273.72;;;9.96;93.09
60437;BME280;46289;51.992;4.498;2023-03-19T00:59:55;101268.59;;;9.92;93.30
60437;BME280;46289;51.992;4.498;2023-03-19T01:02:00;101277.41;;;9.91;93.04
60437;BME280;46289;51.992;4.498;2023-03-19T01:04:05;101273.09;;;9.88;92.99
60437;BME280;46289;51.992;4.498;2023-03-19T01:06:12;101280.06;;;9.89;93.05
60437;BME280;46289;51.992;4.498;2023-03-19T01:08:17;101275.03;;;9.81;93.13
60437;BME280;46289;51.992;4.498;2023-03-19T01:10:23;101276.84;;;9.79;92.59
60437;BME280;46289;51.992;4.498;2023-03-19T01:12:28;101271.53;;;9.82;93.04
60437;BME280;46289;51.992;4.498;2023-03-19T01:14:37;101274.28;;;9.78;92.88
60437;BME280;46289;51.992;4.498;2023-03-19T01:16:45;101275.28;;;9.74;92.80
60437;BME280;46289;51.992;4.498;2023-03-19T01:18:50;101265.00;;;9.66;92.53
60437;BME280;46289;51.992;4.498;2023-03-19T01:20:55;101277.25;;;9.65;92.53
60437;BME280;46289;51.992;4.498;2023-03-19T01:22:59;101278.50;;;9.54;92.73
60437;BME280;46289;51.992;4.498;2023-03-19T01:25:05;101274.97;;;9.55;92.73
60437;BME280;46289;51.992;4.498;2023-03-19T01:27:10;101284.69;;;9.51;92.63
60437;BME280;46289;51.992;4.498;2023-03-19T01:29:15;101283.13;;;9.45;92.80
60437;BME280;46289;51.992;4.498;2023-03-19T01:31:24;101278.88;;;9.40;93.17
60437;BME280;46289;51.992;4.498;2023-03-19T01:33:29;101282.50;;;9.36;93.10
60437;BME280;46289;51.992;4.498;2023-03-19T01:35:34;101281.75;;;9.32;93.09
60437;BME280;46289;51.992;4.498;2023-03-19T01:37:40;101284.31;;;9.34;92.91
60437;BME280;46289;51.992;4.498;2023-03-19T01:39:46;101280.13;;;9.27;92.90
60437;BME280;46289;51.992;4.498;2023-03-19T01:41:53;101277.03;;;9.12;93.28
60437;BME280;46289;51.992;4.498;2023-03-19T01:43:58;101287.56;;;9.11;93.34
60437;BME280;46289;51.992;4.498;2023-03-19T01:46:05;101284.19;;;9.06;93.14
60437;BME280;46289;51.992;4.498;2023-03-19T01:48:22;101275.63;;;9.00;93.08
60437;BME280;46289;51.992;4.498;2023-03-19T01:50:39;101284.56;;;8.92;93.49
60437;BME280;46289;51.992;4.498;2023-03-19T01:52:45;101281.34;;;8.82;93.30
60437;BME280;46289;51.992;4.498;2023-03-19T01:54:50;101285.88;;;8.75;93.47
60437;BME280;46289;51.992;4.498;2023-03-19T01:56:59;101285.09;;;8.72;93.74
60437;BME280;46289;51.992;4.498;2023-03-19T01:59:08;101288.78;;;8.65;94.08
60437;BME280;46289;51.992;4.498;2023-03-19T02:01:16;101290.69;;;8.58;94.12
60437;BME280;46289;51.992;4.498;2023-03-19T02:03:24;101278.50;;;8.55;94.03
60437;BME280;46289;51.992;4.498;2023-03-19T02:05:29;101284.75;;;8.51;94.07
60437;BME280;46289;51.992;4.498;2023-03-19T02:07:36;101285.78;;;8.44;93.85
60437;BME280;46289;51.992;4.498;2023-03-19T02:09:42;101287.69;;;8.38;94.12
60437;BME280;46289;51.992;4.498;2023-03-19T02:11:47;101293.00;;;8.33;94.16
60437;BME280;46289;51.992;4.498;2023-03-19T02:13:53;101291.44;;;8.26;94.16
60437;BME280;46289;51.992;4.498;2023-03-19T02:15:58;101286.09;;;8.30;94.46
60437;BME280;46289;51.992;4.498;2023-03-19T02:18:03;101289.72;;;8.25;94.40
60437;BME280;46289;51.992;4.498;2023-03-19T02:20:16;101290.56;;;8.25;94.43
60437;BME280;46289;51.992;4.498;2023-03-19T02:22:26;101289.00;;;8.18;94.26
60437;BME280;46289;51.992;4.498;2023-03-19T02:24:34;101296.00;;;8.16;94.45
60437;BME280;46289;51.992;4.498;2023-03-19T02:26:44;101291.84;;;8.09;94.43
60437;BME280;46289;51.992;4.498;2023-03-19T02:28:52;101291.09;;;8.04;94.13
60437;BME280;46289;51.992;4.498;2023-03-19T02:30:57;101288.47;;;8.02;94.73
60437;BME280;46289;51.992;4.498;2023-03-19T02:33:02;101292.00;;;8.01;94.70
60437;BME280;46289;51.992;4.498;2023-03-19T02:35:07;101292.94;;;7.99;94.47
60437;BME280;46289;51.992;4.498;2023-03-19T02:37:18;101288.66;;;7.95;94.70
60437;BME280;46289;51.992;4.498;2023-03-19T02:39:27;101287.03;;;7.90;95.14
60437;BME280;46289;51.992;4.498;2023-03-19T02:41:33;101290.41;;;7.94;94.63
60437;BME280;46289;51.992;4.498;2023-03-19T02:43:43;101294.00;;;7.90;94.90
60437;BME280;46289;51.992;4.498;2023-03-19T02:45:48;101291.34;;;7.91;95.24
60437;BME280;46289;51.992;4.498;2023-03-19T02:47:53;101299.28;;;7.88;94.92
60437;BME280;46289;51.992;4.498;2023-03-19T02:50:00;101295.78;;;7.88;94.40
60437;BME280;46289;51.992;4.498;2023-03-19T02:52:05;101298.38;;;7.89;95.14
60437;BME280;46289;51.992;4.498;2023-03-19T02:54:10;101294.94;;;7.87;94.63
60437;BME280;46289;51.992;4.498;2023-03-19T02:56:15;101300.19;;;7.87;94.75
60437;BME280;46289;51.992;4.498;2023-03-19T02:58:21;101293.19;;;7.88;95.17
60437;BME280;46289;51.992;4.498;2023-03-19T03:00:29;101296.56;;;7.93;94.84
60437;BME280;46289;51.992;4.498;2023-03-19T03:02:38;101299.19;;;7.91;95.17
60437;BME280;46289;51.992;4.498;2023-03-19T03:04:42;101304.44;;;7.91;95.11
60437;BME280;46289;51.992;4.498;2023-03-19T03:06:47;101290.47;;;7.93;95.08
60437;BME280;46289;51.992;4.498;2023-03-19T03:08:52;101294.75;;;7.95;95.14
60437;BME280;46289;51.992;4.498;2023-03-19T03:10:57;101299.88;;;8.00;95.10
60437;BME280;46289;51.992;4.498;2023-03-19T03:13:02;101305.09;;;8.01;95.59
60437;BME280;46289;51.992;4.498;2023-03-19T03:15:08;101291.97;;;8.03;95.01
60437;BME280;46289;51.992;4.498;2023-03-19T03:17:15;101304.13;;;8.05;95.24
60437;BME280;46289;51.992;4.498;2023-03-19T03:19:20;101296.84;;;8.18;94.83
60437;BME280;46289;51.992;4.498;2023-03-19T03:21:25;101299.38;;;8.21;94.90
60437;BME280;46289;51.992;4.498;2023-03-19T03:23:30;101308.13;;;8.22;95.07
60437;BME280;46289;51.992;4.498;2023-03-19T03:25:35;101300.13;;;8.26;94.81
60437;BME280;46289;51.992;4.498;2023-03-19T03:27:40;101302.72;;;8.29;94.85
60437;BME280;46289;51.992;4.498;2023-03-19T03:29:45;101301.91;;;8.26;95.02
60437;BME280;46289;51.992;4.498;2023-03-19T03:31:50;101293.09;;;8.30;94.36
60437;BME280;46289;51.992;4.498;2023-03-19T03:33:58;101294.81;;;8.31;94.22
60437;BME280;46289;51.992;4.498;2023-03-19T03:36:06;101293.09;;;8.30;94.09
60437;BME280;46289;51.992;4.498;2023-03-19T03:38:10;101295.72;;;8.30;94.33
60437;BME280;46289;51.992;4.498;2023-03-19T03:40:15;101297.41;;;8.31;94.56
60437;BME280;46289;51.992;4.498;2023-03-19T03:42:21;101295.66;;;8.31;94.43
60437;BME280;46289;51.992;4.498;2023-03-19T03:44:26;101299.19;;;8.30;94.54
60437;BME280;46289;51.992;4.498;2023-03-19T03:46:30;101296.59;;;8.29;94.55
60437;BME280;46289;51.992;4.498;2023-03-19T03:48:36;101296.59;;;8.29;94.94
60437;BME280;46289;51.992;4.498;2023-03-19T03:50:44;101295.75;;;8.28;95.08
60437;BME280;46289;51.992;4.498;2023-03-19T03:52:54;101289.63;;;8.29;95.13
60437;BME280;46289;51.992;4.498;2023-03-19T03:55:00;101294.72;;;8.34;94.92
60437;BME280;46289;51.992;4.498;2023-03-19T03:57:06;101306.97;;;8.33;94.66
60437;BME280;46289;51.992;4.498;2023-03-19T03:59:11;101306.97;;;8.33;94.41
60437;BME280;46289;51.992;4.498;2023-03-19T04:01:19;101302.75;;;8.28;94.30
60437;BME280;46289;51.992;4.498;2023-03-19T04:03:24;101296.66;;;8.27;94.38
60437;BME280;46289;51.992;4.498;2023-03-19T04:05:29;101304.56;;;8.24;94.50
60437;BME280;46289;51.992;4.498;2023-03-19T04:07:36;101307.25;;;8.21;94.33
60437;BME280;46289;51.992;4.498;2023-03-19T04:09:42;101306.38;;;8.21;94.51
60437;BME280;46289;51.992;4.498;2023-03-19T04:11:47;101304.69;;;8.18;94.54
60437;BME280;46289;51.992;4.498;2023-03-19T04:13:53;101315.16;;;8.20;94.58
60437;BME280;46289;51.992;4.498;2023-03-19T04:15:58;101315.16;;;8.18;94.63
60437;BME280;46289;51.992;4.498;2023-03-19T04:18:03;101320.47;;;8.15;94.63
60437;BME280;46289;51.992;4.498;2023-03-19T04:20:09;101323.94;;;8.16;94.78
60437;BME280;46289;51.992;4.498;2023-03-19T04:22:16;101315.31;;;8.12;94.86
60437;BME280;46289;51.992;4.498;2023-03-19T04:24:24;101322.34;;;8.10;95.38
60437;BME280;46289;51.992;4.498;2023-03-19T04:26:29;101312.66;;;8.13;95.19
60437;BME280;46289;51.992;4.498;2023-03-19T04:28:34;101313.63;;;8.11;95.13
60437;BME280;46289;51.992;4.498;2023-03-19T04:30:38;101324.09;;;8.11;94.93
60437;BME280;46289;51.992;4.498;2023-03-19T04:32:44;101324.09;;;8.09;94.81
60437;BME280;46289;51.992;4.498;2023-03-19T04:34:50;101324.03;;;8.12;94.96
60437;BME280;46289;51.992;4.498;2023-03-19T04:36:55;101320.47;;;8.15;94.86
60437;BME280;46289;51.992;4.498;2023-03-19T04:39:00;101330.25;;;8.08;95.06
60437;BME280;46289;51.992;4.498;2023-03-19T04:41:07;101332.81;;;8.10;95.32
60437;BME280;46289;51.992;4.498;2023-03-19T04:43:12;101339.84;;;8.08;95.09
60437;BME280;46289;51.992;4.498;2023-03-19T04:45:17;101338.19;;;8.04;95.11
60437;BME280;46289;51.992;4.498;2023-03-19T04:47:24;101342.50;;;8.06;95.29
60437;BME280;46289;51.992;4.498;2023-03-19T04:49:29;101329.34;;;8.08;95.19
60437;BME280;46289;51.992;4.498;2023-03-19T04:51:34;101340.81;;;8.04;95.04
60437;BME280;46289;51.992;4.498;2023-03-19T04:53:39;101344.38;;;8.00;94.83
60437;BME280;46289;51.992;4.498;2023-03-19T04:55:44;101338.31;;;7.98;94.93
60437;BME280;46289;51.992;4.498;2023-03-19T04:57:51;101346.22;;;7.95;95.29
60437;BME280;46289;51.992;4.498;2023-03-19T04:59:58;101343.66;;;7.93;95.25
60437;BME280;46289;51.992;4.498;2023-03-19T05:02:04;101347.19;;;7.90;95.41
60437;BME280;46289;51.992;4.498;2023-03-19T05:04:09;101346.38;;;7.88;95.44
60437;BME280;46289;51.992;4.498;2023-03-19T05:06:15;101345.38;;;7.94;95.32
60437;BME280;46289;51.992;4.498;2023-03-19T05:08:20;101354.22;;;7.88;95.79
60437;BME280;46289;51.992;4.498;2023-03-19T05:10:27;101355.06;;;7.89;95.33
60437;BME280;46289;51.992;4.498;2023-03-19T05:12:34;101355.16;;;7.86;95.71
60437;BME280;46289;51.992;4.498;2023-03-19T05:14:41;101358.59;;;7.88;95.71
60437;BME280;46289;51.992;4.498;2023-03-19T05:16:47;101364.84;;;7.79;95.76
60437;BME280;46289;51.992;4.498;2023-03-19T05:18:52;101363.22;;;7.75;95.76
60437;BME280;46289;51.992;4.498;2023-03-19T05:20:57;101370.97;;;7.80;95.76
60437;BME280;46289;51.992;4.498;2023-03-19T05:23:02;101373.63;;;7.78;95.77
60437;BME280;46289;51.992;4.498;2023-03-19T05:25:09;101378.84;;;7.78;95.64
60437;BME280;46289;51.992;4.498;2023-03-19T05:27:14;101376.16;;;7.83;95.45
60437;BME280;46289;51.992;4.498;2023-03-19T05:29:19;101383.25;;;7.76;95.31
60437;BME280;46289;51.992;4.498;2023-03-19T05:31:26;101384.22;;;7.70;95.32
60437;BME280;46289;51.992;4.498;2023-03-19T05:33:31;101387.69;;;7.71;95.50
60437;BME280;46289;51.992;4.498;2023-03-19T05:35:38;101390.47;;;7.63;95.89
60437;BME280;46289;51.992;4.498;2023-03-19T05:37:43;101389.53;;;7.66;95.61
60437;BME280;46289;51.992;4.498;2023-03-19T05:39:47;101394.00;;;7.61;96.15
60437;BME280;46289;51.992;4.498;2023-03-19T05:41:52;101393.13;;;7.62;96.04
60437;BME280;46289;51.992;4.498;2023-03-19T05:43:57;101400.97;;;7.62;96.10
60437;BME280;46289;51.992;4.498;2023-03-19T05:46:04;101411.50;;;7.59;96.24
60437;BME280;46289;51.992;4.498;2023-03-19T05:48:12;101410.69;;;7.55;96.49
60437;BME280;46289;51.992;4.498;2023-03-19T05:50:18;101412.31;;;7.61;96.21
60437;BME280;46289;51.992;4.498;2023-03-19T05:52:25;101417.59;;;7.58;96.23
60437;BME280;46289;51.992;4.498;2023-03-19T05:54:30;101420.13;;;7.62;96.42
60437;BME280;46289;51.992;4.498;2023-03-19T05:56:35;101419.25;;;7.63;96.26
60437;BME280;46289;51.992;4.498;2023-03-19T05:58:40;101414.84;;;7.65;96.09
60437;BME280;46289;51.992;4.498;2023-03-19T06:00:45;101408.69;;;7.68;95.99
60437;BME280;46289;51.992;4.498;2023-03-19T06:02:49;101405.25;;;7.66;96.30
60437;BME280;46289;51.992;4.498;2023-03-19T06:04:58;101407.19;;;7.56;96.55
60437;BME280;46289;51.992;4.498;2023-03-19T06:07:03;101403.66;;;7.57;96.66
60437;BME280;46289;51.992;4.498;2023-03-19T06:09:11;101405.38;;;7.60;96.83
60437;BME280;46289;51.992;4.498;2023-03-19T06:11:16;101414.13;;;7.59;96.61
60437;BME280;46289;51.992;4.498;2023-03-19T06:13:21;101402.81;;;7.57;96.72
60437;BME280;46289;51.992;4.498;2023-03-19T06:15:26;101411.53;;;7.57;96.84
60437;BME280;46289;51.992;4.498;2023-03-19T06:17:31;101412.56;;;7.48;96.96
60437;BME280;46289;51.992;4.498;2023-03-19T06:19:36;101415.03;;;7.56;96.84
60437;BME280;46289;51.992;4.498;2023-03-19T06:21:43;101423.75;;;7.55;96.83
60437;BME280;46289;51.992;4.498;2023-03-19T06:23:50;101424.59;;;7.59;96.82
60437;BME280;46289;51.992;4.498;2023-03-19T06:25:54;101427.28;;;7.54;96.85
60437;BME280;46289;51.992;4.498;2023-03-19T06:27:59;101427.22;;;7.57;96.95
60437;BME280;46289;51.992;4.498;2023-03-19T06:30:05;101426.28;;;7.61;96.63
60437;BME280;46289;51.992;4.498;2023-03-19T06:32:11;101429.75;;;7.60;96.78
60437;BME280;46289;51.992;4.498;2023-03-19T06:34:16;101427.16;;;7.60;97.00
60437;BME280;46289;51.992;4.498;2023-03-19T06:36:20;101441.94;;;7.63;96.67
60437;BME280;46289;51.992;4.498;2023-03-19T06:38:27;101445.38;;;7.66;96.91
60437;BME280;46289;51.992;4.498;2023-03-19T06:40:32;101435.72;;;7.68;96.75
60437;BME280;46289;51.992;4.498;2023-03-19T06:42:37;101443.53;;;7.70;96.68
60437;BME280;46289;51.992;4.498;2023-03-19T06:44:42;101444.25;;;7.80;96.26
60437;BME280;46289;51.992;4.498;2023-03-19T06:46:47;101449.50;;;7.78;96.36
60437;BME280;46289;51.992;4.498;2023-03-19T06:48:52;101446.88;;;7.78;96.41
60437;BME280;46289;51.992;4.498;2023-03-19T06:50:57;101452.88;;;7.83;96.62
60437;BME280;46289;51.992;4.498;2023-03-19T06:53:04;101457.19;;;7.87;96.02
60437;BME280;46289;51.992;4.498;2023-03-19T06:55:13;101459.69;;;7.92;96.25
60437;BME280;46289;51.992;4.498;2023-03-19T06:57:18;101459.66;;;7.94;96.16
60437;BME280;46289;51.992;4.498;2023-03-19T06:59:23;101458.81;;;7.91;95.78
60437;BME280;46289;51.992;4.498;2023-03-19T07:01:28;101461.44;;;7.91;95.94
60437;BME280;46289;51.992;4.498;2023-03-19T07:03:34;101462.28;;;7.94;95.98
60437;BME280;46289;51.992;4.498;2023-03-19T07:05:39;101465.69;;;7.97;95.65
60437;BME280;46289;51.992;4.498;2023-03-19T07:07:44;101461.22;;;8.02;95.92
60437;BME280;46289;51.992;4.498;2023-03-19T07:09:49;101462.09;;;8.03;95.77
60437;BME280;46289;51.992;4.498;2023-03-19T07:11:59;101461.97;;;8.09;95.81
60437;BME280;46289;51.992;4.498;2023-03-19T07:14:04;101469.78;;;8.10;95.75
60437;BME280;46289;51.992;4.498;2023-03-19T07:16:12;101472.63;;;8.00;95.36
60437;BME280;46289;51.992;4.498;2023-03-19T07:18:17;101475.06;;;8.09;95.46
60437;BME280;46289;51.992;4.498;2023-03-19T07:20:22;101476.75;;;8.11;95.43
60437;BME280;46289;51.992;4.498;2023-03-19T07:22:26;101482.88;;;8.10;95.41
60437;BME280;46289;51.992;4.498;2023-03-19T07:24:31;101482.00;;;8.11;95.47
60437;BME280;46289;51.992;4.498;2023-03-19T07:26:36;101490.63;;;8.15;95.50
60437;BME280;46289;51.992;4.498;2023-03-19T07:28:44;101491.50;;;8.16;95.38
60437;BME280;46289;51.992;4.498;2023-03-19T07:30:50;101499.28;;;8.19;95.49
60437;BME280;46289;51.992;4.498;2023-03-19T07:32:55;101495.97;;;8.10;95.66
60437;BME280;46289;51.992;4.498;2023-03-19T07:35:00;101496.66;;;8.19;95.68
60437;BME280;46289;51.992;4.498;2023-03-19T07:37:05;101503.59;;;8.21;95.43
60437;BME280;46289;51.992;4.498;2023-03-19T07:39:11;101508.13;;;8.14;95.35
60437;BME280;46289;51.992;4.498;2023-03-19T07:41:15;101501.13;;;8.15;95.24
60437;BME280;46289;51.992;4.498;2023-03-19T07:43:20;101498.41;;;8.20;95.48
60437;BME280;46289;51.992;4.498;2023-03-19T07:45:28;101499.25;;;8.22;95.42
60437;BME280;46289;51.992;4.498;2023-03-19T07:47:33;101503.66;;;8.18;95.31
60437;BME280;46289;51.992;4.498;2023-03-19T07:49:38;101504.41;;;8.25;95.35
60437;BME280;46289;51.992;4.498;2023-03-19T07:51:46;101507.81;;;8.30;95.23
60437;BME280;46289;51.992;4.498;2023-03-19T07:53:51;101509.59;;;8.28;95.08
60437;BME280;46289;51.992;4.498;2023-03-19T07:55:57;101508.81;;;8.24;94.97
60437;BME280;46289;51.992;4.498;2023-03-19T07:58:02;101516.66;;;8.24;95.43
60437;BME280;46289;51.992;4.498;2023-03-19T08:00:08;101513.03;;;8.30;95.13
60437;BME280;46289;51.992;4.498;2023-03-19T08:02:17;101514.69;;;8.34;95.27
60437;BME280;46289;51.992;4.498;2023-03-19T08:04:25;101506.75;;;8.39;95.18
60437;BME280;46289;51.992;4.498;2023-03-19T08:06:30;101516.25;;;8.44;95.10
60437;BME280;46289;51.992;4.498;2023-03-19T08:08:35;101533.81;;;8.41;95.14
60437;BME280;46289;51.992;4.498;2023-03-19T08:10:40;101529.44;;;8.40;95.07
60437;BME280;46289;51.992;4.498;2023-03-19T08:12:45;101537.22;;;8.44;94.79
60437;BME280;46289;51.992;4.498;2023-03-19T08:14:50;101534.69;;;8.40;95.00
60437;BME280;46289;51.992;4.498;2023-03-19T08:16:55;101533.81;;;8.41;95.12
60437;BME280;46289;51.992;4.498;2023-03-19T08:19:02;101539.97;;;8.36;95.01
60437;BME280;46289;51.992;4.498;2023-03-19T08:21:07;101539.84;;;8.44;95.21
60437;BME280;46289;51.992;4.498;2023-03-19T08:23:12;101539.84;;;8.44;94.80
60437;BME280;46289;51.992;4.498;2023-03-19T08:25:18;101537.22;;;8.44;95.25
60437;BME280;46289;51.992;4.498;2023-03-19T08:27:22;101549.31;;;8.51;94.95
60437;BME280;46289;51.992;4.498;2023-03-19T08:29:28;101548.31;;;8.57;94.64
60437;BME280;46289;51.992;4.498;2023-03-19T08:31:33;101547.38;;;8.60;94.76
60437;BME280;46289;51.992;4.498;2023-03-19T08:33:38;101544.59;;;8.67;94.44
60437;BME280;46289;51.992;4.498;2023-03-19T08:35:45;101551.50;;;8.71;94.57
60437;BME280;46289;51.992;4.498;2023-03-19T08:37:51;101552.56;;;8.63;94.68
60437;BME280;46289;51.992;4.498;2023-03-19T08:39:56;101548.84;;;8.73;94.17
60437;BME280;46289;51.992;4.498;2023-03-19T08:42:01;101554.94;;;8.73;94.18
60437;BME280;46289;51.992;4.498;2023-03-19T08:44:06;101566.19;;;8.80;94.48
60437;BME280;46289;51.992;4.498;2023-03-19T08:46:11;101560.03;;;8.81;94.11
60437;BME280;46289;51.992;4.498;2023-03-19T08:48:17;101562.69;;;8.79;94.27
60437;BME280;46289;51.992;4.498;2023-03-19T08:50:23;101566.81;;;8.90;93.98
60437;BME280;46289;51.992;4.498;2023-03-19T08:52:31;101568.63;;;8.88;93.88
60437;BME280;46289;51.992;4.498;2023-03-19T08:54:35;101570.16;;;8.98;94.08
60437;BME280;46289;51.992;4.498;2023-03-19T08:56:40;101565.19;;;8.86;94.06
60437;BME280;46289;51.992;4.498;2023-03-19T08:58:45;101568.56;;;8.91;93.70
60437;BME280;46289;51.992;4.498;2023-03-19T09:00:50;101575.19;;;9.06;94.09
60437;BME280;46289;51.992;4.498;2023-03-19T09:02:55;101581.97;;;9.16;93.54
60437;BME280;46289;51.992;4.498;2023-03-19T09:05:00;101571.13;;;9.31;93.52
60437;BME280;46289;51.992;4.498;2023-03-19T09:07:04;101577.28;;;9.30;92.69
60437;BME280;46289;51.992;4.498;2023-03-19T09:09:12;101572.91;;;9.31;92.78
60437;BME280;46289;51.992;4.498;2023-03-19T09:11:16;101584.03;;;9.40;92.81
60437;BME280;46289;51.992;4.498;2023-03-19T09:13:21;101583.03;;;9.46;92.39
60437;BME280;46289;51.992;4.498;2023-03-19T09:15:26;101581.38;;;9.42;91.77
60437;BME280;46289;51.992;4.498;2023-03-19T09:17:32;101586.47;;;9.48;92.20
60437;BME280;46289;51.992;4.498;2023-03-19T09:19:37;101580.09;;;9.58;92.20
60437;BME280;46289;51.992;4.498;2023-03-19T09:21:44;101586.06;;;9.65;92.01
60437;BME280;46289;51.992;4.498;2023-03-19T09:23:49;101585.22;;;9.64;91.52
60437;BME280;46289;51.992;4.498;2023-03-19T09:25:56;101580.91;;;9.62;91.53
60437;BME280;46289;51.992;4.498;2023-03-19T09:28:02;101583.44;;;9.65;91.31
60437;BME280;46289;51.992;4.498;2023-03-19T09:30:10;101585.22;;;9.64;91.27
60437;BME280;46289;51.992;4.498;2023-03-19T09:32:16;101584.19;;;9.70;91.15
60437;BME280;46289;51.992;4.498;2023-03-19T09:34:22;101593.66;;;9.76;91.13
60437;BME280;46289;51.992;4.498;2023-03-19T09:36:27;101603.03;;;9.86;90.55
60437;BME280;46289;51.992;4.498;2023-03-19T09:38:32;101602.25;;;9.82;89.95
60437;BME280;46289;51.992;4.498;2023-03-19T09:40:38;101605.84;;;9.78;89.81
60437;BME280;46289;51.992;4.498;2023-03-19T09:42:59;101606.50;;;9.88;89.71
60437;BME280;46289;51.992;4.498;2023-03-19T09:45:13;101614.44;;;9.85;89.39
60437;BME280;46289;51.992;4.498;2023-03-19T09:47:28;101613.56;;;9.84;90.08
60437;BME280;46289;51.992;4.498;2023-03-19T09:49:38;101625.28;;;9.71;89.51
60437;BME280;46289;51.992;4.498;2023-03-19T09:51:47;101621.78;;;9.71;89.20
60437;BME280;46289;51.992;4.498;2023-03-19T09:53:56;101632.97;;;9.79;90.14
60437;BME280;46289;51.992;4.498;2023-03-19T09:56:04;101629.94;;;9.58;89.41
60437;BME280;46289;51.992;4.498;2023-03-19T09:58:16;101632.34;;;9.69;90.25
60437;BME280;46289;51.992;4.498;2023-03-19T10:00:24;101640.09;;;9.74;89.68
60437;BME280;46289;51.992;4.498;2023-03-19T10:02:38;101636.66;;;9.72;89.24
60437;BME280;46289;51.992;4.498;2023-03-19T10:04:53;101641.00;;;9.73;89.73
60437;BME280;46289;51.992;4.498;2023-03-19T10:07:05;101656.75;;;9.73;89.58
60437;BME280;46289;51.992;4.498;2023-03-19T10:11:51;101647.63;;;9.50;89.72
60437;BME280;46289;51.992;4.498;2023-03-19T10:14:11;101653.78;;;9.51;89.64
60437;BME280;46289;51.992;4.498;2023-03-19T10:16:22;101654.75;;;9.45;90.08
60437;BME280;46289;51.992;4.498;2023-03-19T10:18:30;101652.69;;;9.59;89.97
60437;BME280;46289;51.992;4.498;2023-03-19T10:20:50;101654.53;;;9.56;89.50
60437;BME280;46289;51.992;4.498;2023-03-19T10:23:02;101658.19;;;9.47;89.80
60437;BME280;46289;51.992;4.498;2023-03-19T10:25:19;101667.59;;;9.57;90.19
60437;BME280;46289;51.992;4.498;2023-03-19T10:27:27;101669.88;;;9.73;89.88
60437;BME280;46289;51.992;4.498;2023-03-19T10:29:35;101664.69;;;9.70;89.52
60437;BME280;46289;51.992;4.498;2023-03-19T10:31:46;101668.28;;;9.65;89.73
60437;BME280;46289;51.992;4.498;2023-03-19T10:34:00;101670.72;;;9.73;89.64
60437;BME280;46289;51.992;4.498;2023-03-19T10:36:10;101672.50;;;9.71;89.38
60437;BME280;46289;51.992;4.498;2023-03-19T10:38:20;101670.78;;;9.70;89.21
60437;BME280;46289;51.992;4.498;2023-03-19T10:40:43;101667.06;;;9.80;89.20
60437;BME280;46289;51.992;4.498;2023-03-19T10:43:04;101672.88;;;9.93;88.92
60437;BME280;46289;51.992;4.498;2023-03-19T10:45:20;101674.69;;;9.91;88.83
60437;BME280;46289;51.992;4.498;2023-03-19T10:47:27;101681.63;;;9.92;88.84
60437;BME280;46289;51.992;4.498;2023-03-19T10:49:34;101675.59;;;9.88;88.68
60437;BME280;46289;51.992;4.498;2023-03-19T10:51:39;101682.00;;;9.77;89.07
60437;BME280;46289;51.992;4.498;2023-03-19T10:53:46;101688.84;;;9.84;88.66
60437;BME280;46289;51.992;4.498;2023-03-19T10:55:53;101683.75;;;9.78;88.67
60437;BME280;46289;51.992;4.498;2023-03-19T10:58:02;101686.97;;;9.89;89.10
60437;BME280;46289;51.992;4.498;2023-03-19T11:00:18;101680.50;;;10.04;89.14
60437;BME280;46289;51.992;4.498;2023-03-19T11:02:24;101682.75;;;10.19;89.04
60437;BME280;46289;51.992;4.498;2023-03-19T11:04:33;101671.22;;;10.25;88.64
60437;BME280;46289;51.992;4.498;2023-03-19T11:06:37;101671.91;;;10.33;88.07
60437;BME280;46289;51.992;4.498;2023-03-19T11:08:49;101678.00;;;10.33;86.82
60437;BME280;46289;51.992;4.498;2023-03-19T11:10:56;101683.06;;;10.41;86.82
60437;BME280;46289;51.992;4.498;2023-03-19T11:13:04;101687.66;;;10.33;86.22